sensor_id;sensor_type;location;lat;lon;timestamp;temperature;humidity
65072;DHT22;51663;52.310;17.016;2024-03-02T00:00:23;30.60;35.30
65072;DHT22;51663;52.310;17.016;2024-03-02T00:03:48;30.60;35.50
65072;DHT22;51663;52.310;17.016;2024-03-02T00:06:53;30.70;35.40
65072;DHT22;51663;52.310;17.016;2024-03-02T00:09:57;30.50;35.80
65072;DHT22;51663;52.310;17.016;2024-03-02T00:12:59;30.50;35.50
65072;DHT22;51663;52.310;17.016;2024-03-02T00:16:02;30.40;35.80
65072;DHT22;51663;52.310;17.016;2024-03-02T00:19:07;30.10;36.40
65072;DHT22;51663;52.310;17.016;2024-03-02T00:22:11;30.30;36.50
65072;DHT22;51663;52.310;17.016;2024-03-02T00:25:14;30.30;36.00
65072;DHT22;51663;52.310;17.016;2024-03-02T00:28:41;30.40;36.10
65072;DHT22;51663;52.310;17.016;2024-03-02T00:31:42;30.00;36.20
65072;DHT22;51663;52.310;17.016;2024-03-02T00:34:44;30.00;36.20
65072;DHT22;51663;52.310;17.016;2024-03-02T00:37:46;30.00;36.30
65072;DHT22;51663;52.310;17.016;2024-03-02T00:40:49;29.90;36.50
65072;DHT22;51663;52.310;17.016;2024-03-02T00:47:05;30.30;36.00
65072;DHT22;51663;52.310;17.016;2024-03-02T00:50:08;30.50;35.90
65072;DHT22;51663;52.310;17.016;2024-03-02T00:53:26;30.50;35.80
65072;DHT22;51663;52.310;17.016;2024-03-02T00:56:29;30.30;35.80
65072;DHT22;51663;52.310;17.016;2024-03-02T00:59:31;30.50;36.00
65072;DHT22;51663;52.310;17.016;2024-03-02T01:02:34;30.40;35.70
65072;DHT22;51663;52.310;17.016;2024-03-02T01:05:36;30.10;36.30
65072;DHT22;51663;52.310;17.016;2024-03-02T01:08:39;29.90;36.40
65072;DHT22;51663;52.310;17.016;2024-03-02T01:11:41;30.30;36.00
65072;DHT22;51663;52.310;17.016;2024-03-02T01:14:45;30.30;35.70
65072;DHT22;51663;52.310;17.016;2024-03-02T01:17:47;30.00;36.10
65072;DHT22;51663;52.310;17.016;2024-03-02T01:20:51;29.80;37.10
65072;DHT22;51663;52.310;17.016;2024-03-02T01:23:57;29.90;36.20
65072;DHT22;51663;52.310;17.016;2024-03-02T01:27:00;30.00;35.80
65072;DHT22;51663;52.310;17.016;2024-03-02T01:30:02;29.90;36.00
65072;DHT22;51663;52.310;17.016;2024-03-02T01:33:05;29.80;36.20
65072;DHT22;51663;52.310;17.016;2024-03-02T01:36:08;30.00;36.00
65072;DHT22;51663;52.310;17.016;2024-03-02T01:39:11;30.00;35.60
65072;DHT22;51663;52.310;17.016;2024-03-02T01:42:13;30.10;35.80
65072;DHT22;51663;52.310;17.016;2024-03-02T01:45:15;30.10;35.80
65072;DHT22;51663;52.310;17.016;2024-03-02T01:48:17;30.10;35.60
65072;DHT22;51663;52.310;17.016;2024-03-02T01:51:21;30.60;35.10
65072;DHT22;51663;52.310;17.016;2024-03-02T01:54:23;30.50;35.10
65072;DHT22;51663;52.310;17.016;2024-03-02T01:57:25;30.60;34.70
65072;DHT22;51663;52.310;17.016;2024-03-02T02:00:28;30.70;34.50
65072;DHT22;51663;52.310;17.016;2024-03-02T02:03:31;30.70;34.20
65072;DHT22;51663;52.310;17.016;2024-03-02T02:06:33;30.40;34.40
65072;DHT22;51663;52.310;17.016;2024-03-02T02:09:35;30.40;34.70
65072;DHT22;51663;52.310;17.016;2024-03-02T02:12:38;30.60;34.30
65072;DHT22;51663;52.310;17.016;2024-03-02T02:15:40;30.60;34.20
65072;DHT22;51663;52.310;17.016;2024-03-02T02:18:43;30.30;34.40
65072;DHT22;51663;52.310;17.016;2024-03-02T02:21:45;30.20;34.60
65072;DHT22;51663;52.310;17.016;2024-03-02T02:24:48;30.10;34.70
65072;DHT22;51663;52.310;17.016;2024-03-02T02:27:50;30.10;34.80
65072;DHT22;51663;52.310;17.016;2024-03-02T02:30:54;30.10;34.80
65072;DHT22;51663;52.310;17.016;2024-03-02T02:33:58;30.30;34.80
65072;DHT22;51663;52.310;17.016;2024-03-02T02:37:01;30.40;34.40
65072;DHT22;51663;52.310;17.016;2024-03-02T02:40:03;30.20;34.50
65072;DHT22;51663;52.310;17.016;2024-03-02T02:43:06;30.40;34.40
65072;DHT22;51663;52.310;17.016;2024-03-02T02:46:09;30.60;34.10
65072;DHT22;51663;52.310;17.016;2024-03-02T02:49:11;30.50;34.10
65072;DHT22;51663;52.310;17.016;2024-03-02T02:52:13;30.30;34.20
65072;DHT22;51663;52.310;17.016;2024-03-02T02:55:15;30.10;34.40
65072;DHT22;51663;52.310;17.016;2024-03-02T02:58:18;30.20;34.50
65072;DHT22;51663;52.310;17.016;2024-03-02T03:01:21;30.50;34.40
65072;DHT22;51663;52.310;17.016;2024-03-02T03:04:23;30.30;34.30
65072;DHT22;51663;52.310;17.016;2024-03-02T03:07:25;30.30;34.30
65072;DHT22;51663;52.310;17.016;2024-03-02T03:10:28;30.30;34.20
65072;DHT22;51663;52.310;17.016;2024-03-02T03:13:33;30.10;34.50
65072;DHT22;51663;52.310;17.016;2024-03-02T03:16:37;30.00;34.60
65072;DHT22;51663;52.310;17.016;2024-03-02T03:19:40;30.10;34.20
65072;DHT22;51663;52.310;17.016;2024-03-02T03:22:42;30.00;34.30
65072;DHT22;51663;52.310;17.016;2024-03-02T03:25:44;29.80;34.70
65072;DHT22;51663;52.310;17.016;2024-03-02T03:28:47;29.70;34.80
65072;DHT22;51663;52.310;17.016;2024-03-02T03:31:49;30.00;34.50
65072;DHT22;51663;52.310;17.016;2024-03-02T03:34:52;30.00;34.50
65072;DHT22;51663;52.310;17.016;2024-03-02T03:37:54;30.10;34.20
65072;DHT22;51663;52.310;17.016;2024-03-02T03:40:57;30.10;34.00
65072;DHT22;51663;52.310;17.016;2024-03-02T03:43:59;30.20;34.00
65072;DHT22;51663;52.310;17.016;2024-03-02T03:47:01;30.00;33.80
65072;DHT22;51663;52.310;17.016;2024-03-02T03:50:05;30.40;33.70
65072;DHT22;51663;52.310;17.016;2024-03-02T03:53:09;30.60;33.40
65072;DHT22;51663;52.310;17.016;2024-03-02T03:56:11;30.70;33.30
65072;DHT22;51663;52.310;17.016;2024-03-02T03:59:14;30.60;33.30
65072;DHT22;51663;52.310;17.016;2024-03-02T04:02:16;30.60;33.20
65072;DHT22;51663;52.310;17.016;2024-03-02T04:05:18;30.60;32.90
65072;DHT22;51663;52.310;17.016;2024-03-02T04:08:20;30.80;33.00
65072;DHT22;51663;52.310;17.016;2024-03-02T04:11:23;30.80;33.00
65072;DHT22;51663;52.310;17.016;2024-03-02T04:14:26;30.80;33.20
65072;DHT22;51663;52.310;17.016;2024-03-02T04:17:28;30.80;32.70
65072;DHT22;51663;52.310;17.016;2024-03-02T04:20:30;30.60;33.00
65072;DHT22;51663;52.310;17.016;2024-03-02T04:23:32;30.50;33.20
65072;DHT22;51663;52.310;17.016;2024-03-02T04:26:35;30.40;33.60
65072;DHT22;51663;52.310;17.016;2024-03-02T04:29:37;30.60;33.20
65072;DHT22;51663;52.310;17.016;2024-03-02T04:32:40;30.50;33.20
65072;DHT22;51663;52.310;17.016;2024-03-02T04:35:42;30.50;33.20
65072;DHT22;51663;52.310;17.016;2024-03-02T04:38:44;30.50;33.30
65072;DHT22;51663;52.310;17.016;2024-03-02T04:41:47;30.40;33.20
65072;DHT22;51663;52.310;17.016;2024-03-02T04:44:49;30.50;33.30
65072;DHT22;51663;52.310;17.016;2024-03-02T04:47:52;30.70;33.10
65072;DHT22;51663;52.310;17.016;2024-03-02T04:50:54;30.60;33.00
65072;DHT22;51663;52.310;17.016;2024-03-02T04:53:56;30.70;32.90
65072;DHT22;51663;52.310;17.016;2024-03-02T04:56:58;30.70;33.00
65072;DHT22;51663;52.310;17.016;2024-03-02T05:00:01;30.70;32.90
65072;DHT22;51663;52.310;17.016;2024-03-02T05:03:03;30.60;33.20
65072;DHT22;51663;52.310;17.016;2024-03-02T05:06:06;30.40;33.40
65072;DHT22;51663;52.310;17.016;2024-03-02T05:09:09;30.70;32.90
65072;DHT22;51663;52.310;17.016;2024-03-02T05:12:11;30.60;33.00
65072;DHT22;51663;52.310;17.016;2024-03-02T05:15:19;30.60;32.70
65072;DHT22;51663;52.310;17.016;2024-03-02T05:18:22;30.60;32.90
65072;DHT22;51663;52.310;17.016;2024-03-02T05:21:25;30.80;32.90
65072;DHT22;51663;52.310;17.016;2024-03-02T05:24:28;30.30;33.40
65072;DHT22;51663;52.310;17.016;2024-03-02T05:27:30;30.50;33.10
65072;DHT22;51663;52.310;17.016;2024-03-02T05:30:35;30.50;33.00
65072;DHT22;51663;52.310;17.016;2024-03-02T05:33:38;30.50;33.10
65072;DHT22;51663;52.310;17.016;2024-03-02T05:36:40;30.80;32.80
65072;DHT22;51663;52.310;17.016;2024-03-02T05:39:43;30.70;32.70
65072;DHT22;51663;52.310;17.016;2024-03-02T05:42:46;30.40;32.80
65072;DHT22;51663;52.310;17.016;2024-03-02T05:45:49;30.50;32.90
65072;DHT22;51663;52.310;17.016;2024-03-02T05:48:52;30.60;32.70
65072;DHT22;51663;52.310;17.016;2024-03-02T05:51:54;30.50;32.90
65072;DHT22;51663;52.310;17.016;2024-03-02T05:54:57;30.60;32.70
65072;DHT22;51663;52.310;17.016;2024-03-02T05:57:59;30.40;32.80
65072;DHT22;51663;52.310;17.016;2024-03-02T06:01:14;30.30;32.90
65072;DHT22;51663;52.310;17.016;2024-03-02T06:04:16;30.30;33.00
65072;DHT22;51663;52.310;17.016;2024-03-02T06:07:19;30.20;33.10
65072;DHT22;51663;52.310;17.016;2024-03-02T06:10:21;30.30;33.00
65072;DHT22;51663;52.310;17.016;2024-03-02T06:13:23;30.30;33.00
65072;DHT22;51663;52.310;17.016;2024-03-02T06:16:27;30.30;32.90
65072;DHT22;51663;52.310;17.016;2024-03-02T06:19:29;30.40;32.80
65072;DHT22;51663;52.310;17.016;2024-03-02T06:22:32;30.40;32.80
65072;DHT22;51663;52.310;17.016;2024-03-02T06:25:35;30.00;33.50
65072;DHT22;51663;52.310;17.016;2024-03-02T06:28:37;30.20;33.10
65072;DHT22;51663;52.310;17.016;2024-03-02T06:31:43;30.40;32.90
65072;DHT22;51663;52.310;17.016;2024-03-02T06:34:45;30.60;32.60
65072;DHT22;51663;52.310;17.016;2024-03-02T06:37:48;30.80;32.40
65072;DHT22;51663;52.310;17.016;2024-03-02T06:40:50;30.90;32.20
65072;DHT22;51663;52.310;17.016;2024-03-02T06:43:53;30.80;32.40
65072;DHT22;51663;52.310;17.016;2024-03-02T06:47:02;30.90;32.20
65072;DHT22;51663;52.310;17.016;2024-03-02T06:50:05;30.80;32.10
65072;DHT22;51663;52.310;17.016;2024-03-02T06:53:09;30.90;32.00
65072;DHT22;51663;52.310;17.016;2024-03-02T06:56:11;30.90;32.00
65072;DHT22;51663;52.310;17.016;2024-03-02T06:59:13;30.80;32.10
65072;DHT22;51663;52.310;17.016;2024-03-02T07:02:15;30.70;32.30
65072;DHT22;51663;52.310;17.016;2024-03-02T07:05:17;30.80;32.30
65072;DHT22;51663;52.310;17.016;2024-03-02T07:08:21;30.80;32.30
65072;DHT22;51663;52.310;17.016;2024-03-02T07:11:24;30.70;32.50
65072;DHT22;51663;52.310;17.016;2024-03-02T07:14:27;31.00;32.20
65072;DHT22;51663;52.310;17.016;2024-03-02T07:17:49;31.20;32.20
65072;DHT22;51663;52.310;17.016;2024-03-02T07:20:51;31.40;31.90
65072;DHT22;51663;52.310;17.016;2024-03-02T07:23:53;31.30;32.00
65072;DHT22;51663;52.310;17.016;2024-03-02T07:26:56;31.40;32.00
65072;DHT22;51663;52.310;17.016;2024-03-02T07:29:58;31.60;31.60
65072;DHT22;51663;52.310;17.016;2024-03-02T07:33:00;31.60;31.60
65072;DHT22;51663;52.310;17.016;2024-03-02T07:36:03;31.70;31.70
65072;DHT22;51663;52.310;17.016;2024-03-02T07:39:06;31.80;31.50
65072;DHT22;51663;52.310;17.016;2024-03-02T07:42:09;31.90;31.40
65072;DHT22;51663;52.310;17.016;2024-03-02T07:45:11;31.90;31.20
65072;DHT22;51663;52.310;17.016;2024-03-02T07:48:14;31.70;31.60
65072;DHT22;51663;52.310;17.016;2024-03-02T07:51:17;31.50;31.90
65072;DHT22;51663;52.310;17.016;2024-03-02T07:54:19;31.80;31.70
65072;DHT22;51663;52.310;17.016;2024-03-02T07:57:22;32.00;31.50
65072;DHT22;51663;52.310;17.016;2024-03-02T08:00:24;32.00;31.60
65072;DHT22;51663;52.310;17.016;2024-03-02T08:03:27;32.50;31.20
65072;DHT22;51663;52.310;17.016;2024-03-02T08:06:30;32.20;31.20
65072;DHT22;51663;52.310;17.016;2024-03-02T08:09:32;32.10;31.60
65072;DHT22;51663;52.310;17.016;2024-03-02T08:12:34;32.20;31.40
65072;DHT22;51663;52.310;17.016;2024-03-02T08:15:37;32.20;31.10
65072;DHT22;51663;52.310;17.016;2024-03-02T08:18:39;32.00;31.40
65072;DHT22;51663;52.310;17.016;2024-03-02T08:21:43;31.90;31.70
65072;DHT22;51663;52.310;17.016;2024-03-02T08:24:46;32.20;31.50
65072;DHT22;51663;52.310;17.016;2024-03-02T08:27:50;32.10;31.50
65072;DHT22;51663;52.310;17.016;2024-03-02T08:30:53;31.90;31.50
65072;DHT22;51663;52.310;17.016;2024-03-02T08:33:56;32.10;31.80
65072;DHT22;51663;52.310;17.016;2024-03-02T08:36:59;32.60;31.20
65072;DHT22;51663;52.310;17.016;2024-03-02T08:40:02;32.60;31.10
65072;DHT22;51663;52.310;17.016;2024-03-02T08:43:06;32.80;30.80
65072;DHT22;51663;52.310;17.016;2024-03-02T08:46:09;32.90;30.50
65072;DHT22;51663;52.310;17.016;2024-03-02T08:49:12;32.90;30.50
65072;DHT22;51663;52.310;17.016;2024-03-02T08:52:15;32.70;30.90
65072;DHT22;51663;52.310;17.016;2024-03-02T08:55:17;32.80;31.00
65072;DHT22;51663;52.310;17.016;2024-03-02T08:58:19;33.10;30.80
65072;DHT22;51663;52.310;17.016;2024-03-02T09:01:22;33.30;30.60
65072;DHT22;51663;52.310;17.016;2024-03-02T09:04:25;33.20;30.50
65072;DHT22;51663;52.310;17.016;2024-03-02T09:07:29;33.10;30.90
65072;DHT22;51663;52.310;17.016;2024-03-02T09:10:33;33.40;30.30
65072;DHT22;51663;52.310;17.016;2024-03-02T09:13:35;33.30;30.50
65072;DHT22;51663;52.310;17.016;2024-03-02T09:16:38;33.50;30.40
65072;DHT22;51663;52.310;17.016;2024-03-02T09:19:40;33.50;30.40
65072;DHT22;51663;52.310;17.016;2024-03-02T09:22:42;33.60;30.30
65072;DHT22;51663;52.310;17.016;2024-03-02T09:25:44;33.60;30.30
65072;DHT22;51663;52.310;17.016;2024-03-02T09:28:47;33.80;30.20
65072;DHT22;51663;52.310;17.016;2024-03-02T09:31:49;33.50;30.20
65072;DHT22;51663;52.310;17.016;2024-03-02T09:34:52;33.90;30.40
65072;DHT22;51663;52.310;17.016;2024-03-02T09:37:55;33.80;30.20
65072;DHT22;51663;52.310;17.016;2024-03-02T09:40:59;33.50;30.70
65072;DHT22;51663;52.310;17.016;2024-03-02T09:44:02;33.90;30.50
65072;DHT22;51663;52.310;17.016;2024-03-02T09:47:07;33.70;30.10
65072;DHT22;51663;52.310;17.016;2024-03-02T09:50:09;33.80;30.00
65072;DHT22;51663;52.310;17.016;2024-03-02T09:53:12;34.10;29.90
65072;DHT22;51663;52.310;17.016;2024-03-02T09:56:15;34.20;30.00
65072;DHT22;51663;52.310;17.016;2024-03-02T09:59:18;33.80;30.20
65072;DHT22;51663;52.310;17.016;2024-03-02T10:02:22;33.50;30.50
65072;DHT22;51663;52.310;17.016;2024-03-02T10:05:26;33.50;30.50
65072;DHT22;51663;52.310;17.016;2024-03-02T10:08:42;33.20;30.80
65072;DHT22;51663;52.310;17.016;2024-03-02T10:11:46;33.50;31.10
65072;DHT22;51663;52.310;17.016;2024-03-02T10:14:48;33.60;30.70
65072;DHT22;51663;52.310;17.016;2024-03-02T10:17:52;33.20;31.10
65072;DHT22;51663;52.310;17.016;2024-03-02T10:20:54;33.30;31.10
65072;DHT22;51663;52.310;17.016;2024-03-02T10:24:07;33.20;31.30
65072;DHT22;51663;52.310;17.016;2024-03-02T10:27:11;33.20;31.30
65072;DHT22;51663;52.310;17.016;2024-03-02T10:30:19;33.30;31.20
65072;DHT22;51663;52.310;17.016;2024-03-02T10:33:21;33.60;30.80
65072;DHT22;51663;52.310;17.016;2024-03-02T10:36:25;33.60;31.00
65072;DHT22;51663;52.310;17.016;2024-03-02T10:39:28;33.70;30.90
65072;DHT22;51663;52.310;17.016;2024-03-02T10:42:31;33.60;31.00
65072;DHT22;51663;52.310;17.016;2024-03-02T10:45:33;33.40;31.00
65072;DHT22;51663;52.310;17.016;2024-03-02T10:48:36;33.60;31.20
65072;DHT22;51663;52.310;17.016;2024-03-02T10:51:41;33.50;31.20
65072;DHT22;51663;52.310;17.016;2024-03-02T10:54:43;33.50;30.80
65072;DHT22;51663;52.310;17.016;2024-03-02T11:00:53;33.30;31.70
65072;DHT22;51663;52.310;17.016;2024-03-02T11:03:56;33.20;31.40
65072;DHT22;51663;52.310;17.016;2024-03-02T11:07:06;32.90;31.60
65072;DHT22;51663;52.310;17.016;2024-03-02T11:10:09;32.90;31.90
65072;DHT22;51663;52.310;17.016;2024-03-02T11:13:12;33.10;31.70
65072;DHT22;51663;52.310;17.016;2024-03-02T11:16:32;33.00;31.70
65072;DHT22;51663;52.310;17.016;2024-03-02T11:19:40;32.80;32.20
65072;DHT22;51663;52.310;17.016;2024-03-02T11:22:42;33.00;32.10
65072;DHT22;51663;52.310;17.016;2024-03-02T11:25:46;32.70;31.90
65072;DHT22;51663;52.310;17.016;2024-03-02T11:28:49;32.90;31.80
65072;DHT22;51663;52.310;17.016;2024-03-02T11:31:58;32.90;31.60
65072;DHT22;51663;52.310;17.016;2024-03-02T11:35:03;32.70;32.30
65072;DHT22;51663;52.310;17.016;2024-03-02T11:38:07;32.70;32.40
65072;DHT22;51663;52.310;17.016;2024-03-02T11:41:09;33.00;32.00
65072;DHT22;51663;52.310;17.016;2024-03-02T11:44:12;33.10;32.10
65072;DHT22;51663;52.310;17.016;2024-03-02T11:47:16;33.40;31.90
65072;DHT22;51663;52.310;17.016;2024-03-02T11:50:36;33.70;31.20
65072;DHT22;51663;52.310;17.016;2024-03-02T11:53:42;33.90;30.70
65072;DHT22;51663;52.310;17.016;2024-03-02T11:56:45;33.90;30.60
65072;DHT22;51663;52.310;17.016;2024-03-02T11:59:48;34.00;31.20
65072;DHT22;51663;52.310;17.016;2024-03-02T12:03:05;33.90;30.40
65072;DHT22;51663;52.310;17.016;2024-03-02T12:06:07;34.00;30.60
65072;DHT22;51663;52.310;17.016;2024-03-02T12:09:10;34.10;30.20
65072;DHT22;51663;52.310;17.016;2024-03-02T12:12:16;34.20;30.20
65072;DHT22;51663;52.310;17.016;2024-03-02T12:15:32;33.70;30.60
65072;DHT22;51663;52.310;17.016;2024-03-02T12:18:35;34.00;30.40
65072;DHT22;51663;52.310;17.016;2024-03-02T12:21:38;34.10;30.20
65072;DHT22;51663;52.310;17.016;2024-03-02T12:24:41;34.10;30.40
65072;DHT22;51663;52.310;17.016;2024-03-02T12:27:44;34.20;30.60
65072;DHT22;51663;52.310;17.016;2024-03-02T12:30:48;34.20;30.30
65072;DHT22;51663;52.310;17.016;2024-03-02T12:33:51;34.30;30.30
65072;DHT22;51663;52.310;17.016;2024-03-02T12:36:53;34.40;30.20
65072;DHT22;51663;52.310;17.016;2024-03-02T12:39:55;34.30;30.00
65072;DHT22;51663;52.310;17.016;2024-03-02T12:42:58;34.30;29.90
65072;DHT22;51663;52.310;17.016;2024-03-02T12:46:01;34.30;30.00
65072;DHT22;51663;52.310;17.016;2024-03-02T12:49:11;34.60;30.00
65072;DHT22;51663;52.310;17.016;2024-03-02T12:52:16;34.80;29.70
65072;DHT22;51663;52.310;17.016;2024-03-02T12:55:22;34.80;29.50
65072;DHT22;51663;52.310;17.016;2024-03-02T12:58:25;34.60;29.40
65072;DHT22;51663;52.310;17.016;2024-03-02T13:01:28;34.70;29.50
65072;DHT22;51663;52.310;17.016;2024-03-02T13:04:31;34.80;29.40
65072;DHT22;51663;52.310;17.016;2024-03-02T13:07:34;34.30;29.60
65072;DHT22;51663;52.310;17.016;2024-03-02T13:10:37;34.60;29.60
65072;DHT22;51663;52.310;17.016;2024-03-02T13:13:40;34.50;29.70
65072;DHT22;51663;52.310;17.016;2024-03-02T13:16:44;33.90;29.90
65072;DHT22;51663;52.310;17.016;2024-03-02T13:19:57;34.40;29.80
65072;DHT22;51663;52.310;17.016;2024-03-02T13:22:59;34.70;29.50
65072;DHT22;51663;52.310;17.016;2024-03-02T13:26:02;34.70;29.20
65072;DHT22;51663;52.310;17.016;2024-03-02T13:29:04;34.90;29.20
65072;DHT22;51663;52.310;17.016;2024-03-02T13:32:07;34.90;29.00
65072;DHT22;51663;52.310;17.016;2024-03-02T13:35:09;34.30;29.40
65072;DHT22;51663;52.310;17.016;2024-03-02T13:38:13;34.40;29.50
65072;DHT22;51663;52.310;17.016;2024-03-02T13:41:16;34.50;29.70
65072;DHT22;51663;52.310;17.016;2024-03-02T13:44:21;34.70;29.20
65072;DHT22;51663;52.310;17.016;2024-03-02T13:47:24;34.70;29.10
65072;DHT22;51663;52.310;17.016;2024-03-02T13:50:26;34.80;29.00
65072;DHT22;51663;52.310;17.016;2024-03-02T13:53:30;34.80;29.10
65072;DHT22;51663;52.310;17.016;2024-03-02T13:56:34;34.90;29.50
65072;DHT22;51663;52.310;17.016;2024-03-02T13:59:36;35.00;29.20
65072;DHT22;51663;52.310;17.016;2024-03-02T14:02:39;35.20;28.80
65072;DHT22;51663;52.310;17.016;2024-03-02T14:05:43;35.10;28.70
65072;DHT22;51663;52.310;17.016;2024-03-02T14:08:45;35.30;28.60
65072;DHT22;51663;52.310;17.016;2024-03-02T14:11:50;34.80;28.80
65072;DHT22;51663;52.310;17.016;2024-03-02T14:14:52;34.70;29.00
65072;DHT22;51663;52.310;17.016;2024-03-02T14:17:57;34.70;28.80
65072;DHT22;51663;52.310;17.016;2024-03-02T14:21:00;34.70;28.80
65072;DHT22;51663;52.310;17.016;2024-03-02T14:24:02;34.80;28.60
65072;DHT22;51663;52.310;17.016;2024-03-02T14:27:04;34.70;28.80
65072;DHT22;51663;52.310;17.016;2024-03-02T14:30:25;34.90;28.80
65072;DHT22;51663;52.310;17.016;2024-03-02T14:33:28;34.80;28.70
65072;DHT22;51663;52.310;17.016;2024-03-02T14:36:31;34.80;28.80
65072;DHT22;51663;52.310;17.016;2024-03-02T14:39:33;34.90;28.90
65072;DHT22;51663;52.310;17.016;2024-03-02T14:42:37;34.90;28.90
65072;DHT22;51663;52.310;17.016;2024-03-02T14:45:39;34.90;28.80
65072;DHT22;51663;52.310;17.016;2024-03-02T14:48:42;35.10;28.70
65072;DHT22;51663;52.310;17.016;2024-03-02T14:51:45;35.20;29.10
65072;DHT22;51663;52.310;17.016;2024-03-02T14:54:48;35.20;29.10
65072;DHT22;51663;52.310;17.016;2024-03-02T14:57:50;35.00;29.00
65072;DHT22;51663;52.310;17.016;2024-03-02T15:00:53;35.00;29.00
65072;DHT22;51663;52.310;17.016;2024-03-02T15:03:55;34.80;29.30
65072;DHT22;51663;52.310;17.016;2024-03-02T15:06:58;34.60;29.90
65072;DHT22;51663;52.310;17.016;2024-03-02T15:10:00;34.20;30.40
65072;DHT22;51663;52.310;17.016;2024-03-02T15:13:03;34.10;30.90
65072;DHT22;51663;52.310;17.016;2024-03-02T15:16:06;34.00;30.70
65072;DHT22;51663;52.310;17.016;2024-03-02T15:19:08;33.70;31.30
65072;DHT22;51663;52.310;17.016;2024-03-02T15:22:11;33.80;31.50
65072;DHT22;51663;52.310;17.016;2024-03-02T15:25:14;33.80;31.50
65072;DHT22;51663;52.310;17.016;2024-03-02T15:28:18;33.60;31.70
65072;DHT22;51663;52.310;17.016;2024-03-02T15:31:21;33.40;32.80
65072;DHT22;51663;52.310;17.016;2024-03-02T15:34:24;33.40;32.30
65072;DHT22;51663;52.310;17.016;2024-03-02T15:37:27;33.10;32.60
65072;DHT22;51663;52.310;17.016;2024-03-02T15:40:30;33.30;32.80
65072;DHT22;51663;52.310;17.016;2024-03-02T15:43:33;33.40;32.50
65072;DHT22;51663;52.310;17.016;2024-03-02T15:46:38;33.40;32.50
65072;DHT22;51663;52.310;17.016;2024-03-02T15:49:40;33.40;32.40
65072;DHT22;51663;52.310;17.016;2024-03-02T15:52:42;33.10;32.30
65072;DHT22;51663;52.310;17.016;2024-03-02T15:55:47;33.00;33.40
65072;DHT22;51663;52.310;17.016;2024-03-02T15:58:49;33.10;33.00
65072;DHT22;51663;52.310;17.016;2024-03-02T16:01:51;32.60;33.40
65072;DHT22;51663;52.310;17.016;2024-03-02T16:04:54;32.60;33.60
65072;DHT22;51663;52.310;17.016;2024-03-02T16:07:56;32.70;33.60
65072;DHT22;51663;52.310;17.016;2024-03-02T16:10:59;32.80;33.20
65072;DHT22;51663;52.310;17.016;2024-03-02T16:14:05;32.50;33.50
65072;DHT22;51663;52.310;17.016;2024-03-02T16:17:08;32.60;34.30
65072;DHT22;51663;52.310;17.016;2024-03-02T16:20:11;32.60;33.50
65072;DHT22;51663;52.310;17.016;2024-03-02T16:23:14;32.40;33.70
65072;DHT22;51663;52.310;17.016;2024-03-02T16:26:16;32.50;33.90
65072;DHT22;51663;52.310;17.016;2024-03-02T16:29:18;32.60;33.60
65072;DHT22;51663;52.310;17.016;2024-03-02T16:32:21;32.80;33.50
65072;DHT22;51663;52.310;17.016;2024-03-02T16:35:23;32.60;33.50
65072;DHT22;51663;52.310;17.016;2024-03-02T16:38:26;32.80;33.50
65072;DHT22;51663;52.310;17.016;2024-03-02T16:41:28;32.80;33.60
65072;DHT22;51663;52.310;17.016;2024-03-02T16:44:32;32.80;33.50
65072;DHT22;51663;52.310;17.016;2024-03-02T16:47:34;32.80;33.30
65072;DHT22;51663;52.310;17.016;2024-03-02T16:50:36;32.90;33.40
65072;DHT22;51663;52.310;17.016;2024-03-02T16:53:38;32.90;33.50
65072;DHT22;51663;52.310;17.016;2024-03-02T16:56:43;32.80;33.40
65072;DHT22;51663;52.310;17.016;2024-03-02T16:59:46;32.80;33.50
65072;DHT22;51663;52.310;17.016;2024-03-02T17:02:48;32.80;33.40
65072;DHT22;51663;52.310;17.016;2024-03-02T17:05:50;32.80;33.50
65072;DHT22;51663;52.310;17.016;2024-03-02T17:08:53;32.60;33.50
65072;DHT22;51663;52.310;17.016;2024-03-02T17:11:55;32.80;33.40
65072;DHT22;51663;52.310;17.016;2024-03-02T17:14:57;32.70;33.60
65072;DHT22;51663;52.310;17.016;2024-03-02T17:17:59;32.30;33.80
65072;DHT22;51663;52.310;17.016;2024-03-02T17:21:04;32.60;33.70
65072;DHT22;51663;52.310;17.016;2024-03-02T17:24:06;32.50;33.70
65072;DHT22;51663;52.310;17.016;2024-03-02T17:27:08;32.60;33.60
65072;DHT22;51663;52.310;17.016;2024-03-02T17:30:11;32.60;33.50
65072;DHT22;51663;52.310;17.016;2024-03-02T17:33:13;32.70;33.40
65072;DHT22;51663;52.310;17.016;2024-03-02T17:36:16;32.70;33.30
65072;DHT22;51663;52.310;17.016;2024-03-02T17:39:18;32.60;33.50
65072;DHT22;51663;52.310;17.016;2024-03-02T17:42:20;32.40;33.70
65072;DHT22;51663;52.310;17.016;2024-03-02T17:45:23;32.40;33.50
65072;DHT22;51663;52.310;17.016;2024-03-02T17:48:25;32.30;33.70
65072;DHT22;51663;52.310;17.016;2024-03-02T17:51:27;32.60;33.50
65072;DHT22;51663;52.310;17.016;2024-03-02T17:54:29;32.50;33.50
65072;DHT22;51663;52.310;17.016;2024-03-02T17:57:32;32.20;33.90
65072;DHT22;51663;52.310;17.016;2024-03-02T18:00:34;32.30;33.70
65072;DHT22;51663;52.310;17.016;2024-03-02T18:03:37;32.10;33.60
65072;DHT22;51663;52.310;17.016;2024-03-02T18:06:40;31.80;34.30
65072;DHT22;51663;52.310;17.016;2024-03-02T18:09:42;31.60;34.50
65072;DHT22;51663;52.310;17.016;2024-03-02T18:12:44;31.30;34.80
65072;DHT22;51663;52.310;17.016;2024-03-02T18:15:48;31.30;35.00
65072;DHT22;51663;52.310;17.016;2024-03-02T18:18:52;31.30;34.70
65072;DHT22;51663;52.310;17.016;2024-03-02T18:21:55;31.50;34.70
65072;DHT22;51663;52.310;17.016;2024-03-02T18:24:58;31.30;34.70
65072;DHT22;51663;52.310;17.016;2024-03-02T18:28:02;31.10;34.80
65072;DHT22;51663;52.310;17.016;2024-03-02T18:31:04;30.60;36.00
65072;DHT22;51663;52.310;17.016;2024-03-02T18:34:07;30.80;35.60
65072;DHT22;51663;52.310;17.016;2024-03-02T18:37:09;30.60;35.60
65072;DHT22;51663;52.310;17.016;2024-03-02T18:40:12;30.90;35.30
65072;DHT22;51663;52.310;17.016;2024-03-02T18:43:16;31.00;35.10
65072;DHT22;51663;52.310;17.016;2024-03-02T18:46:18;31.00;35.00
65072;DHT22;51663;52.310;17.016;2024-03-02T18:49:21;31.10;35.00
65072;DHT22;51663;52.310;17.016;2024-03-02T18:52:24;31.00;34.90
65072;DHT22;51663;52.310;17.016;2024-03-02T18:55:29;31.00;35.00
65072;DHT22;51663;52.310;17.016;2024-03-02T18:58:32;31.10;34.80
65072;DHT22;51663;52.310;17.016;2024-03-02T19:01:34;30.90;34.90
65072;DHT22;51663;52.310;17.016;2024-03-02T19:04:37;30.90;35.00